Terminal Aerodrome Forecast
Issued by NWS

Home | Current Version | Previous Version | Text Only | Print | Product List | Glossary On
Versions: 1 2 3 4 5 6 7 8 9 10 11 12 13 14 15 16 17 18 19 20 21 22 23 24 25 26 27 28
000
FTAK31 PANC 030531
TAFAHO
TAF
PAHO 030531Z 0306/0406 24008KT P6SM SCT040 BKN200
     FM030800 VRB04KT P6SM FEW040
     FM032100 25010KT P6SM SCT040
     FM040500 20007KT P6SM SCT040 BKN090=

USA.gov is the U.S. government's official web portal to all federal, state and local government web resources and services.